Terminal Aerodrome Forecast
Issued by NWS Sioux Falls, SD

Home | Current Version | Previous Version | Graphics & Text | Print | Product List | Glossary On
Versions: 1 2 3 4 5 6 7 8 9 10 11 12
703
FTUS43 KFSD 201725
TAFFSD
TAF
KFSD 201725Z 2018/2118 13007KT P6SM BKN150 OVC200
     FM210000 11007KT P6SM VCSH OVC090
     FM210600 11005KT P6SM OVC050=

USA.gov is the U.S. government's official web portal to all federal, state and local government web resources and services.